sensor_id;sensor_type;location;lat;lon;timestamp;P1;durP1;ratioP1;P2;durP2;ratioP2
73428;SDS011;61643;49.564;17.412;2023-07-02T00:00:13;6.10;;;4.47;;
73428;SDS011;61643;49.564;17.412;2023-07-02T00:02:39;7.57;;;4.30;;
73428;SDS011;61643;49.564;17.412;2023-07-02T00:05:06;6.85;;;4.68;;
73428;SDS011;61643;49.564;17.412;2023-07-02T00:07:32;6.93;;;4.15;;
73428;SDS011;61643;49.564;17.412;2023-07-02T00:10:00;5.43;;;4.10;;
73428;SDS011;61643;49.564;17.412;2023-07-02T00:12:25;5.97;;;4.40;;
73428;SDS011;61643;49.564;17.412;2023-07-02T00:14:51;6.60;;;4.22;;
73428;SDS011;61643;49.564;17.412;2023-07-02T00:17:18;6.47;;;4.35;;
73428;SDS011;61643;49.564;17.412;2023-07-02T00:19:45;5.47;;;4.05;;
73428;SDS011;61643;49.564;17.412;2023-07-02T00:22:12;6.65;;;4.43;;
73428;SDS011;61643;49.564;17.412;2023-07-02T00:24:38;5.93;;;4.00;;
73428;SDS011;61643;49.564;17.412;2023-07-02T00:27:04;7.75;;;4.18;;
73428;SDS011;61643;49.564;17.412;2023-07-02T00:29:30;7.53;;;4.00;;
73428;SDS011;61643;49.564;17.412;2023-07-02T00:31:56;5.03;;;3.88;;
73428;SDS011;61643;49.564;17.412;2023-07-02T00:34:22;5.63;;;4.35;;
73428;SDS011;61643;49.564;17.412;2023-07-02T00:36:48;7.60;;;4.25;;
73428;SDS011;61643;49.564;17.412;2023-07-02T00:39:14;7.25;;;4.40;;
73428;SDS011;61643;49.564;17.412;2023-07-02T00:41:41;7.65;;;4.80;;
73428;SDS011;61643;49.564;17.412;2023-07-02T00:44:08;7.75;;;3.92;;
73428;SDS011;61643;49.564;17.412;2023-07-02T00:46:34;6.28;;;4.45;;
73428;SDS011;61643;49.564;17.412;2023-07-02T00:49:00;7.22;;;4.35;;
73428;SDS011;61643;49.564;17.412;2023-07-02T00:51:29;5.93;;;4.50;;
73428;SDS011;61643;49.564;17.412;2023-07-02T00:53:56;7.63;;;4.40;;
73428;SDS011;61643;49.564;17.412;2023-07-02T00:56:24;6.45;;;4.43;;
73428;SDS011;61643;49.564;17.412;2023-07-02T00:58:51;6.40;;;4.70;;
73428;SDS011;61643;49.564;17.412;2023-07-02T01:01:23;7.43;;;4.60;;
73428;SDS011;61643;49.564;17.412;2023-07-02T01:03:55;9.75;;;4.68;;
73428;SDS011;61643;49.564;17.412;2023-07-02T01:06:35;6.55;;;4.40;;
73428;SDS011;61643;49.564;17.412;2023-07-02T01:09:06;5.63;;;4.15;;
73428;SDS011;61643;49.564;17.412;2023-07-02T01:16:44;6.65;;;4.82;;
73428;SDS011;61643;49.564;17.412;2023-07-02T01:19:16;7.22;;;4.40;;
73428;SDS011;61643;49.564;17.412;2023-07-02T01:21:48;7.25;;;4.22;;
73428;SDS011;61643;49.564;17.412;2023-07-02T01:24:15;5.97;;;4.13;;
73428;SDS011;61643;49.564;17.412;2023-07-02T01:26:42;6.22;;;4.38;;
73428;SDS011;61643;49.564;17.412;2023-07-02T01:29:13;6.70;;;4.50;;
73428;SDS011;61643;49.564;17.412;2023-07-02T01:31:42;9.38;;;4.88;;
73428;SDS011;61643;49.564;17.412;2023-07-02T01:34:09;8.00;;;4.63;;
73428;SDS011;61643;49.564;17.412;2023-07-02T01:36:35;6.22;;;4.35;;
73428;SDS011;61643;49.564;17.412;2023-07-02T01:39:01;8.65;;;4.50;;
73428;SDS011;61643;49.564;17.412;2023-07-02T01:41:27;6.57;;;4.30;;
73428;SDS011;61643;49.564;17.412;2023-07-02T01:43:53;7.00;;;4.80;;
73428;SDS011;61643;49.564;17.412;2023-07-02T01:46:20;6.95;;;3.85;;
73428;SDS011;61643;49.564;17.412;2023-07-02T01:48:46;6.90;;;4.20;;
73428;SDS011;61643;49.564;17.412;2023-07-02T01:51:12;6.55;;;4.45;;
73428;SDS011;61643;49.564;17.412;2023-07-02T01:53:39;8.15;;;5.00;;
73428;SDS011;61643;49.564;17.412;2023-07-02T01:56:05;6.40;;;4.50;;
73428;SDS011;61643;49.564;17.412;2023-07-02T01:58:31;7.25;;;4.65;;
73428;SDS011;61643;49.564;17.412;2023-07-02T02:00:57;7.05;;;4.70;;
73428;SDS011;61643;49.564;17.412;2023-07-02T02:03:23;7.07;;;4.40;;
73428;SDS011;61643;49.564;17.412;2023-07-02T02:05:49;6.90;;;4.43;;
73428;SDS011;61643;49.564;17.412;2023-07-02T02:08:15;8.15;;;4.55;;
73428;SDS011;61643;49.564;17.412;2023-07-02T02:10:41;6.65;;;4.45;;
73428;SDS011;61643;49.564;17.412;2023-07-02T02:13:07;7.38;;;4.72;;
73428;SDS011;61643;49.564;17.412;2023-07-02T02:15:33;6.13;;;4.75;;
73428;SDS011;61643;49.564;17.412;2023-07-02T02:17:58;8.35;;;4.75;;
73428;SDS011;61643;49.564;17.412;2023-07-02T02:20:24;7.80;;;4.43;;
73428;SDS011;61643;49.564;17.412;2023-07-02T02:22:50;7.95;;;5.13;;
73428;SDS011;61643;49.564;17.412;2023-07-02T02:25:16;6.32;;;4.57;;
73428;SDS011;61643;49.564;17.412;2023-07-02T02:27:42;6.95;;;4.70;;
73428;SDS011;61643;49.564;17.412;2023-07-02T02:30:09;7.25;;;4.60;;
73428;SDS011;61643;49.564;17.412;2023-07-02T02:32:35;6.53;;;4.90;;
73428;SDS011;61643;49.564;17.412;2023-07-02T02:35:01;7.35;;;4.93;;
73428;SDS011;61643;49.564;17.412;2023-07-02T02:37:27;9.45;;;4.85;;
73428;SDS011;61643;49.564;17.412;2023-07-02T02:39:52;7.88;;;4.30;;
73428;SDS011;61643;49.564;17.412;2023-07-02T02:42:18;7.72;;;5.10;;
73428;SDS011;61643;49.564;17.412;2023-07-02T02:44:44;6.50;;;4.88;;
73428;SDS011;61643;49.564;17.412;2023-07-02T02:47:10;8.52;;;5.25;;
73428;SDS011;61643;49.564;17.412;2023-07-02T02:49:37;8.88;;;5.13;;
73428;SDS011;61643;49.564;17.412;2023-07-02T02:52:04;8.60;;;5.40;;
73428;SDS011;61643;49.564;17.412;2023-07-02T02:54:30;9.10;;;5.30;;
73428;SDS011;61643;49.564;17.412;2023-07-02T02:56:56;11.27;;;5.38;;
73428;SDS011;61643;49.564;17.412;2023-07-02T02:59:22;7.90;;;4.88;;
73428;SDS011;61643;49.564;17.412;2023-07-02T03:01:48;7.80;;;5.00;;
73428;SDS011;61643;49.564;17.412;2023-07-02T03:04:14;7.03;;;4.82;;
73428;SDS011;61643;49.564;17.412;2023-07-02T03:06:40;7.97;;;5.65;;
73428;SDS011;61643;49.564;17.412;2023-07-02T03:09:06;7.07;;;4.40;;
73428;SDS011;61643;49.564;17.412;2023-07-02T03:11:32;7.75;;;4.93;;
73428;SDS011;61643;49.564;17.412;2023-07-02T03:13:58;8.50;;;5.30;;
73428;SDS011;61643;49.564;17.412;2023-07-02T03:16:24;8.38;;;5.30;;
73428;SDS011;61643;49.564;17.412;2023-07-02T03:18:50;8.38;;;5.28;;
73428;SDS011;61643;49.564;17.412;2023-07-02T03:21:16;8.18;;;5.50;;
73428;SDS011;61643;49.564;17.412;2023-07-02T03:23:42;8.18;;;5.43;;
73428;SDS011;61643;49.564;17.412;2023-07-02T03:26:10;9.45;;;5.80;;
73428;SDS011;61643;49.564;17.412;2023-07-02T03:28:35;6.85;;;5.47;;
73428;SDS011;61643;49.564;17.412;2023-07-02T03:31:01;7.95;;;5.50;;
73428;SDS011;61643;49.564;17.412;2023-07-02T03:33:27;10.10;;;5.65;;
73428;SDS011;61643;49.564;17.412;2023-07-02T03:35:53;10.00;;;5.43;;
73428;SDS011;61643;49.564;17.412;2023-07-02T03:38:19;7.25;;;4.90;;
73428;SDS011;61643;49.564;17.412;2023-07-02T03:40:45;8.82;;;5.03;;
73428;SDS011;61643;49.564;17.412;2023-07-02T03:43:11;8.40;;;5.50;;
73428;SDS011;61643;49.564;17.412;2023-07-02T03:45:37;7.18;;;5.00;;
73428;SDS011;61643;49.564;17.412;2023-07-02T03:48:03;12.45;;;5.47;;
73428;SDS011;61643;49.564;17.412;2023-07-02T03:50:29;9.88;;;5.40;;
73428;SDS011;61643;49.564;17.412;2023-07-02T03:52:55;9.20;;;5.45;;
73428;SDS011;61643;49.564;17.412;2023-07-02T03:55:21;10.18;;;5.07;;
73428;SDS011;61643;49.564;17.412;2023-07-02T03:57:47;9.23;;;5.10;;
73428;SDS011;61643;49.564;17.412;2023-07-02T04:00:13;9.68;;;5.35;;
73428;SDS011;61643;49.564;17.412;2023-07-02T04:02:39;10.73;;;5.40;;
73428;SDS011;61643;49.564;17.412;2023-07-02T04:05:05;7.47;;;5.22;;
73428;SDS011;61643;49.564;17.412;2023-07-02T04:07:31;9.40;;;5.38;;
73428;SDS011;61643;49.564;17.412;2023-07-02T04:09:57;11.38;;;5.65;;
73428;SDS011;61643;49.564;17.412;2023-07-02T04:12:23;12.13;;;5.95;;
73428;SDS011;61643;49.564;17.412;2023-07-02T04:14:49;10.77;;;5.38;;
73428;SDS011;61643;49.564;17.412;2023-07-02T04:17:15;10.90;;;6.72;;
73428;SDS011;61643;49.564;17.412;2023-07-02T04:19:41;10.88;;;6.57;;
73428;SDS011;61643;49.564;17.412;2023-07-02T04:22:07;14.57;;;6.22;;
73428;SDS011;61643;49.564;17.412;2023-07-02T04:24:33;9.32;;;5.55;;
73428;SDS011;61643;49.564;17.412;2023-07-02T04:26:59;10.95;;;6.38;;
73428;SDS011;61643;49.564;17.412;2023-07-02T04:29:25;10.70;;;5.70;;
73428;SDS011;61643;49.564;17.412;2023-07-02T04:31:51;11.88;;;6.25;;
73428;SDS011;61643;49.564;17.412;2023-07-02T04:34:17;9.35;;;5.82;;
73428;SDS011;61643;49.564;17.412;2023-07-02T04:36:43;10.27;;;5.68;;
73428;SDS011;61643;49.564;17.412;2023-07-02T04:39:09;12.05;;;6.07;;
73428;SDS011;61643;49.564;17.412;2023-07-02T04:41:36;10.27;;;5.60;;
73428;SDS011;61643;49.564;17.412;2023-07-02T04:44:02;11.85;;;5.90;;
73428;SDS011;61643;49.564;17.412;2023-07-02T04:46:28;9.45;;;5.68;;
73428;SDS011;61643;49.564;17.412;2023-07-02T04:48:55;9.88;;;6.07;;
73428;SDS011;61643;49.564;17.412;2023-07-02T04:51:21;14.75;;;5.95;;
73428;SDS011;61643;49.564;17.412;2023-07-02T04:53:47;16.52;;;6.70;;
73428;SDS011;61643;49.564;17.412;2023-07-02T04:56:13;8.75;;;6.03;;
73428;SDS011;61643;49.564;17.412;2023-07-02T04:58:39;13.68;;;6.85;;
73428;SDS011;61643;49.564;17.412;2023-07-02T05:01:05;14.05;;;6.55;;
73428;SDS011;61643;49.564;17.412;2023-07-02T05:03:31;12.73;;;6.60;;
73428;SDS011;61643;49.564;17.412;2023-07-02T05:05:57;10.63;;;6.15;;
73428;SDS011;61643;49.564;17.412;2023-07-02T05:08:23;13.30;;;6.90;;
73428;SDS011;61643;49.564;17.412;2023-07-02T05:10:49;14.35;;;7.20;;
73428;SDS011;61643;49.564;17.412;2023-07-02T05:13:15;13.43;;;6.88;;
73428;SDS011;61643;49.564;17.412;2023-07-02T05:15:41;9.13;;;6.38;;
73428;SDS011;61643;49.564;17.412;2023-07-02T05:18:07;16.17;;;7.70;;
73428;SDS011;61643;49.564;17.412;2023-07-02T05:20:33;14.93;;;7.35;;
73428;SDS011;61643;49.564;17.412;2023-07-02T05:22:59;15.13;;;7.60;;
73428;SDS011;61643;49.564;17.412;2023-07-02T05:25:25;14.55;;;7.32;;
73428;SDS011;61643;49.564;17.412;2023-07-02T05:27:51;14.35;;;7.60;;
73428;SDS011;61643;49.564;17.412;2023-07-02T05:30:17;15.90;;;7.35;;
73428;SDS011;61643;49.564;17.412;2023-07-02T05:32:42;11.32;;;7.32;;
73428;SDS011;61643;49.564;17.412;2023-07-02T05:35:08;14.13;;;7.47;;
73428;SDS011;61643;49.564;17.412;2023-07-02T05:37:34;12.00;;;6.55;;
73428;SDS011;61643;49.564;17.412;2023-07-02T05:40:00;12.95;;;7.43;;
73428;SDS011;61643;49.564;17.412;2023-07-02T05:42:26;13.38;;;7.40;;
73428;SDS011;61643;49.564;17.412;2023-07-02T05:44:52;11.07;;;6.90;;
73428;SDS011;61643;49.564;17.412;2023-07-02T05:47:18;11.88;;;6.90;;
73428;SDS011;61643;49.564;17.412;2023-07-02T05:49:44;11.38;;;6.28;;
73428;SDS011;61643;49.564;17.412;2023-07-02T05:52:10;13.55;;;7.20;;
73428;SDS011;61643;49.564;17.412;2023-07-02T05:54:39;10.45;;;6.53;;
73428;SDS011;61643;49.564;17.412;2023-07-02T05:57:07;9.18;;;6.10;;
73428;SDS011;61643;49.564;17.412;2023-07-02T05:59:33;13.52;;;7.07;;
73428;SDS011;61643;49.564;17.412;2023-07-02T06:01:59;11.70;;;6.68;;
73428;SDS011;61643;49.564;17.412;2023-07-02T06:04:26;10.63;;;6.60;;
73428;SDS011;61643;49.564;17.412;2023-07-02T06:06:52;9.93;;;5.70;;
73428;SDS011;61643;49.564;17.412;2023-07-02T06:09:18;9.55;;;5.45;;
73428;SDS011;61643;49.564;17.412;2023-07-02T06:11:44;9.93;;;5.18;;
73428;SDS011;61643;49.564;17.412;2023-07-02T06:14:09;8.07;;;5.00;;
73428;SDS011;61643;49.564;17.412;2023-07-02T06:16:35;9.40;;;5.60;;
73428;SDS011;61643;49.564;17.412;2023-07-02T06:19:01;10.02;;;5.38;;
73428;SDS011;61643;49.564;17.412;2023-07-02T06:21:27;11.77;;;6.18;;
73428;SDS011;61643;49.564;17.412;2023-07-02T06:23:56;8.07;;;5.18;;
73428;SDS011;61643;49.564;17.412;2023-07-02T06:26:23;6.03;;;4.18;;
73428;SDS011;61643;49.564;17.412;2023-07-02T06:28:49;7.95;;;4.45;;
73428;SDS011;61643;49.564;17.412;2023-07-02T06:31:15;8.93;;;4.45;;
73428;SDS011;61643;49.564;17.412;2023-07-02T06:33:41;8.23;;;4.80;;
73428;SDS011;61643;49.564;17.412;2023-07-02T06:36:07;7.03;;;4.65;;
73428;SDS011;61643;49.564;17.412;2023-07-02T06:38:33;8.32;;;5.10;;
73428;SDS011;61643;49.564;17.412;2023-07-02T06:40:59;8.13;;;4.68;;
73428;SDS011;61643;49.564;17.412;2023-07-02T06:43:25;8.10;;;4.47;;
73428;SDS011;61643;49.564;17.412;2023-07-02T06:45:51;10.20;;;4.85;;
73428;SDS011;61643;49.564;17.412;2023-07-02T06:48:17;9.80;;;4.95;;
73428;SDS011;61643;49.564;17.412;2023-07-02T06:50:46;8.07;;;4.75;;
73428;SDS011;61643;49.564;17.412;2023-07-02T06:53:13;7.93;;;4.20;;
73428;SDS011;61643;49.564;17.412;2023-07-02T06:55:39;7.85;;;4.80;;
73428;SDS011;61643;49.564;17.412;2023-07-02T06:58:05;6.97;;;4.15;;
73428;SDS011;61643;49.564;17.412;2023-07-02T07:00:32;9.07;;;4.90;;
73428;SDS011;61643;49.564;17.412;2023-07-02T07:03:04;8.48;;;4.38;;
73428;SDS011;61643;49.564;17.412;2023-07-02T07:05:31;11.25;;;4.88;;
73428;SDS011;61643;49.564;17.412;2023-07-02T07:07:57;7.05;;;5.15;;
73428;SDS011;61643;49.564;17.412;2023-07-02T07:10:24;6.28;;;4.60;;
73428;SDS011;61643;49.564;17.412;2023-07-02T07:12:52;8.05;;;5.10;;
73428;SDS011;61643;49.564;17.412;2023-07-02T07:15:19;9.68;;;4.30;;
73428;SDS011;61643;49.564;17.412;2023-07-02T07:17:46;6.32;;;3.90;;
73428;SDS011;61643;49.564;17.412;2023-07-02T07:20:12;5.32;;;4.00;;
73428;SDS011;61643;49.564;17.412;2023-07-02T07:22:37;4.45;;;3.67;;
73428;SDS011;61643;49.564;17.412;2023-07-02T07:25:04;6.03;;;3.63;;
73428;SDS011;61643;49.564;17.412;2023-07-02T07:27:30;6.55;;;3.67;;
73428;SDS011;61643;49.564;17.412;2023-07-02T07:29:56;6.72;;;4.30;;
73428;SDS011;61643;49.564;17.412;2023-07-02T07:32:22;7.07;;;3.80;;
73428;SDS011;61643;49.564;17.412;2023-07-02T07:34:48;6.40;;;4.10;;
73428;SDS011;61643;49.564;17.412;2023-07-02T07:37:14;6.13;;;3.88;;
73428;SDS011;61643;49.564;17.412;2023-07-02T07:39:40;5.50;;;4.00;;
73428;SDS011;61643;49.564;17.412;2023-07-02T07:42:06;7.03;;;3.78;;
73428;SDS011;61643;49.564;17.412;2023-07-02T07:44:32;5.65;;;3.30;;
73428;SDS011;61643;49.564;17.412;2023-07-02T07:46:58;6.25;;;3.67;;
73428;SDS011;61643;49.564;17.412;2023-07-02T07:49:24;5.05;;;3.45;;
73428;SDS011;61643;49.564;17.412;2023-07-02T07:51:50;3.15;;;2.67;;
73428;SDS011;61643;49.564;17.412;2023-07-02T07:54:16;5.70;;;3.10;;
73428;SDS011;61643;49.564;17.412;2023-07-02T07:56:42;4.07;;;2.90;;
73428;SDS011;61643;49.564;17.412;2023-07-02T07:59:08;3.90;;;3.13;;
73428;SDS011;61643;49.564;17.412;2023-07-02T08:01:34;5.47;;;2.80;;
73428;SDS011;61643;49.564;17.412;2023-07-02T08:04:01;5.78;;;2.67;;
73428;SDS011;61643;49.564;17.412;2023-07-02T08:06:27;6.85;;;2.90;;
73428;SDS011;61643;49.564;17.412;2023-07-02T08:08:53;3.83;;;2.70;;
73428;SDS011;61643;49.564;17.412;2023-07-02T08:11:19;6.10;;;3.30;;
73428;SDS011;61643;49.564;17.412;2023-07-02T08:13:45;4.90;;;3.20;;
73428;SDS011;61643;49.564;17.412;2023-07-02T08:16:11;6.53;;;3.78;;
73428;SDS011;61643;49.564;17.412;2023-07-02T08:18:37;5.38;;;3.53;;
73428;SDS011;61643;49.564;17.412;2023-07-02T08:21:03;4.50;;;3.10;;
73428;SDS011;61643;49.564;17.412;2023-07-02T08:23:32;5.50;;;3.15;;
73428;SDS011;61643;49.564;17.412;2023-07-02T08:25:58;9.15;;;3.60;;
73428;SDS011;61643;49.564;17.412;2023-07-02T08:28:24;6.78;;;3.60;;
73428;SDS011;61643;49.564;17.412;2023-07-02T08:30:50;4.07;;;3.60;;
73428;SDS011;61643;49.564;17.412;2023-07-02T08:33:16;6.53;;;3.38;;
73428;SDS011;61643;49.564;17.412;2023-07-02T08:35:42;4.45;;;3.60;;
73428;SDS011;61643;49.564;17.412;2023-07-02T08:38:08;5.05;;;3.10;;
73428;SDS011;61643;49.564;17.412;2023-07-02T08:40:33;5.50;;;2.70;;
73428;SDS011;61643;49.564;17.412;2023-07-02T08:42:59;5.15;;;3.28;;
73428;SDS011;61643;49.564;17.412;2023-07-02T08:45:26;4.47;;;3.45;;
73428;SDS011;61643;49.564;17.412;2023-07-02T08:47:52;6.53;;;3.80;;
73428;SDS011;61643;49.564;17.412;2023-07-02T08:50:23;6.50;;;3.30;;
73428;SDS011;61643;49.564;17.412;2023-07-02T08:52:49;5.95;;;3.60;;
73428;SDS011;61643;49.564;17.412;2023-07-02T08:55:15;9.38;;;4.00;;
73428;SDS011;61643;49.564;17.412;2023-07-02T08:57:47;6.32;;;3.58;;
73428;SDS011;61643;49.564;17.412;2023-07-02T09:00:15;3.28;;;2.45;;
73428;SDS011;61643;49.564;17.412;2023-07-02T09:02:41;3.42;;;2.40;;
73428;SDS011;61643;49.564;17.412;2023-07-02T09:05:07;4.57;;;2.50;;
73428;SDS011;61643;49.564;17.412;2023-07-02T09:07:43;3.03;;;2.53;;
73428;SDS011;61643;49.564;17.412;2023-07-02T09:10:10;3.03;;;2.58;;
73428;SDS011;61643;49.564;17.412;2023-07-02T09:12:36;4.50;;;2.50;;
73428;SDS011;61643;49.564;17.412;2023-07-02T09:15:04;3.65;;;2.55;;
73428;SDS011;61643;49.564;17.412;2023-07-02T09:17:32;5.32;;;2.38;;
73428;SDS011;61643;49.564;17.412;2023-07-02T09:19:59;3.47;;;2.20;;
73428;SDS011;61643;49.564;17.412;2023-07-02T09:22:26;3.33;;;2.10;;
73428;SDS011;61643;49.564;17.412;2023-07-02T09:24:53;3.17;;;1.88;;
73428;SDS011;61643;49.564;17.412;2023-07-02T09:29:50;3.20;;;2.22;;
73428;SDS011;61643;49.564;17.412;2023-07-02T09:32:25;3.47;;;2.20;;
73428;SDS011;61643;49.564;17.412;2023-07-02T09:34:54;2.08;;;1.85;;
73428;SDS011;61643;49.564;17.412;2023-07-02T09:37:23;2.35;;;2.10;;
73428;SDS011;61643;49.564;17.412;2023-07-02T09:39:50;3.58;;;2.20;;
73428;SDS011;61643;49.564;17.412;2023-07-02T09:42:20;3.20;;;2.22;;
73428;SDS011;61643;49.564;17.412;2023-07-02T09:44:46;3.13;;;2.25;;
73428;SDS011;61643;49.564;17.412;2023-07-02T09:47:13;1.85;;;1.60;;
73428;SDS011;61643;49.564;17.412;2023-07-02T09:49:43;3.22;;;1.80;;
73428;SDS011;61643;49.564;17.412;2023-07-02T09:52:14;2.00;;;1.70;;
73428;SDS011;61643;49.564;17.412;2023-07-02T09:54:42;2.65;;;1.60;;
73428;SDS011;61643;49.564;17.412;2023-07-02T09:57:08;2.50;;;1.88;;
73428;SDS011;61643;49.564;17.412;2023-07-02T09:59:34;2.05;;;1.70;;
73428;SDS011;61643;49.564;17.412;2023-07-02T10:02:00;2.03;;;1.88;;
73428;SDS011;61643;49.564;17.412;2023-07-02T10:04:27;1.88;;;1.77;;
73428;SDS011;61643;49.564;17.412;2023-07-02T10:06:54;1.63;;;1.50;;
73428;SDS011;61643;49.564;17.412;2023-07-02T10:09:33;2.63;;;1.63;;
73428;SDS011;61643;49.564;17.412;2023-07-02T10:12:15;1.75;;;1.60;;
73428;SDS011;61643;49.564;17.412;2023-07-02T10:14:43;3.05;;;1.70;;
73428;SDS011;61643;49.564;17.412;2023-07-02T10:17:10;2.50;;;1.70;;
73428;SDS011;61643;49.564;17.412;2023-07-02T10:19:51;2.38;;;1.80;;
73428;SDS011;61643;49.564;17.412;2023-07-02T10:22:18;3.08;;;1.98;;
73428;SDS011;61643;49.564;17.412;2023-07-02T10:24:51;3.60;;;1.70;;
73428;SDS011;61643;49.564;17.412;2023-07-02T10:27:18;1.98;;;1.52;;
73428;SDS011;61643;49.564;17.412;2023-07-02T10:29:50;3.72;;;1.75;;
73428;SDS011;61643;49.564;17.412;2023-07-02T10:32:38;2.60;;;1.70;;
73428;SDS011;61643;49.564;17.412;2023-07-02T10:35:13;3.78;;;1.60;;
73428;SDS011;61643;49.564;17.412;2023-07-02T10:37:43;1.52;;;1.42;;
73428;SDS011;61643;49.564;17.412;2023-07-02T10:40:10;2.47;;;1.50;;
73428;SDS011;61643;49.564;17.412;2023-07-02T10:42:49;2.10;;;1.80;;
73428;SDS011;61643;49.564;17.412;2023-07-02T10:45:17;2.28;;;1.52;;
73428;SDS011;61643;49.564;17.412;2023-07-02T10:47:43;3.42;;;1.88;;
73428;SDS011;61643;49.564;17.412;2023-07-02T10:50:16;2.97;;;1.70;;
73428;SDS011;61643;49.564;17.412;2023-07-02T10:52:43;1.70;;;1.40;;
73428;SDS011;61643;49.564;17.412;2023-07-02T10:55:10;1.98;;;1.65;;
73428;SDS011;61643;49.564;17.412;2023-07-02T10:57:36;2.97;;;1.70;;
73428;SDS011;61643;49.564;17.412;2023-07-02T11:00:05;5.50;;;1.40;;
73428;SDS011;61643;49.564;17.412;2023-07-02T11:02:37;2.22;;;1.60;;
73428;SDS011;61643;49.564;17.412;2023-07-02T11:05:06;2.22;;;1.55;;
73428;SDS011;61643;49.564;17.412;2023-07-02T11:07:40;1.83;;;1.40;;
73428;SDS011;61643;49.564;17.412;2023-07-02T11:10:07;1.77;;;1.50;;
73428;SDS011;61643;49.564;17.412;2023-07-02T11:15:10;2.10;;;1.50;;
73428;SDS011;61643;49.564;17.412;2023-07-02T11:17:40;2.65;;;1.80;;
73428;SDS011;61643;49.564;17.412;2023-07-02T11:20:08;1.85;;;1.38;;
73428;SDS011;61643;49.564;17.412;2023-07-02T11:22:35;1.50;;;1.40;;
73428;SDS011;61643;49.564;17.412;2023-07-02T11:25:12;1.40;;;1.20;;
73428;SDS011;61643;49.564;17.412;2023-07-02T11:27:40;2.30;;;1.60;;
73428;SDS011;61643;49.564;17.412;2023-07-02T11:30:06;1.60;;;1.50;;
73428;SDS011;61643;49.564;17.412;2023-07-02T11:32:49;2.13;;;1.67;;
73428;SDS011;61643;49.564;17.412;2023-07-02T11:35:17;1.95;;;1.60;;
73428;SDS011;61643;49.564;17.412;2023-07-02T11:37:43;2.20;;;1.70;;
73428;SDS011;61643;49.564;17.412;2023-07-02T11:40:09;3.17;;;1.60;;
73428;SDS011;61643;49.564;17.412;2023-07-02T11:42:35;1.50;;;1.40;;
73428;SDS011;61643;49.564;17.412;2023-07-02T11:45:01;2.85;;;1.35;;
73428;SDS011;61643;49.564;17.412;2023-07-02T11:47:27;1.63;;;1.52;;
73428;SDS011;61643;49.564;17.412;2023-07-02T11:49:53;3.45;;;1.60;;
73428;SDS011;61643;49.564;17.412;2023-07-02T11:52:25;1.58;;;1.48;;
73428;SDS011;61643;49.564;17.412;2023-07-02T11:54:51;1.77;;;1.38;;
73428;SDS011;61643;49.564;17.412;2023-07-02T11:57:17;4.38;;;1.50;;
73428;SDS011;61643;49.564;17.412;2023-07-02T11:59:43;1.77;;;1.48;;
73428;SDS011;61643;49.564;17.412;2023-07-02T12:02:09;1.55;;;1.45;;
73428;SDS011;61643;49.564;17.412;2023-07-02T12:04:35;3.03;;;1.27;;
73428;SDS011;61643;49.564;17.412;2023-07-02T12:07:01;1.95;;;1.35;;
73428;SDS011;61643;49.564;17.412;2023-07-02T12:09:29;3.10;;;1.73;;
73428;SDS011;61643;49.564;17.412;2023-07-02T12:11:55;2.55;;;1.75;;
73428;SDS011;61643;49.564;17.412;2023-07-02T12:14:21;1.52;;;1.30;;
73428;SDS011;61643;49.564;17.412;2023-07-02T12:16:47;4.13;;;1.40;;
73428;SDS011;61643;49.564;17.412;2023-07-02T12:19:13;1.98;;;1.40;;
73428;SDS011;61643;49.564;17.412;2023-07-02T12:21:39;2.55;;;1.75;;
73428;SDS011;61643;49.564;17.412;2023-07-02T12:24:05;1.50;;;1.40;;
73428;SDS011;61643;49.564;17.412;2023-07-02T12:26:35;1.92;;;1.50;;
73428;SDS011;61643;49.564;17.412;2023-07-02T12:29:01;1.60;;;1.50;;
73428;SDS011;61643;49.564;17.412;2023-07-02T12:31:28;1.88;;;1.58;;
73428;SDS011;61643;49.564;17.412;2023-07-02T12:33:53;1.55;;;1.45;;
73428;SDS011;61643;49.564;17.412;2023-07-02T12:36:19;2.13;;;1.80;;
73428;SDS011;61643;49.564;17.412;2023-07-02T12:38:45;2.05;;;1.83;;
73428;SDS011;61643;49.564;17.412;2023-07-02T12:41:11;2.20;;;1.70;;
73428;SDS011;61643;49.564;17.412;2023-07-02T12:43:37;2.88;;;1.77;;
73428;SDS011;61643;49.564;17.412;2023-07-02T12:46:03;2.33;;;1.70;;
73428;SDS011;61643;49.564;17.412;2023-07-02T12:48:29;2.10;;;1.73;;
73428;SDS011;61643;49.564;17.412;2023-07-02T12:50:56;2.33;;;2.03;;
73428;SDS011;61643;49.564;17.412;2023-07-02T12:53:23;2.78;;;1.80;;
73428;SDS011;61643;49.564;17.412;2023-07-02T12:55:50;3.70;;;2.08;;
73428;SDS011;61643;49.564;17.412;2023-07-02T12:58:16;2.35;;;2.03;;
73428;SDS011;61643;49.564;17.412;2023-07-02T13:00:42;2.00;;;1.80;;
73428;SDS011;61643;49.564;17.412;2023-07-02T13:03:09;2.05;;;1.83;;
73428;SDS011;61643;49.564;17.412;2023-07-02T13:05:36;2.15;;;1.80;;
73428;SDS011;61643;49.564;17.412;2023-07-02T13:08:02;2.83;;;1.80;;
73428;SDS011;61643;49.564;17.412;2023-07-02T13:10:29;2.13;;;1.77;;
73428;SDS011;61643;49.564;17.412;2023-07-02T13:12:55;2.72;;;1.90;;
73428;SDS011;61643;49.564;17.412;2023-07-02T13:15:22;2.83;;;1.52;;
73428;SDS011;61643;49.564;17.412;2023-07-02T13:17:48;3.15;;;1.70;;
73428;SDS011;61643;49.564;17.412;2023-07-02T13:20:14;2.08;;;1.83;;
73428;SDS011;61643;49.564;17.412;2023-07-02T13:22:40;1.80;;;1.70;;
73428;SDS011;61643;49.564;17.412;2023-07-02T13:25:06;1.73;;;1.60;;
73428;SDS011;61643;49.564;17.412;2023-07-02T13:27:32;1.80;;;1.70;;
73428;SDS011;61643;49.564;17.412;2023-07-02T13:29:59;3.13;;;1.67;;
73428;SDS011;61643;49.564;17.412;2023-07-02T13:32:25;1.70;;;1.60;;
73428;SDS011;61643;49.564;17.412;2023-07-02T13:34:51;3.00;;;1.50;;
73428;SDS011;61643;49.564;17.412;2023-07-02T13:37:17;1.77;;;1.63;;
73428;SDS011;61643;49.564;17.412;2023-07-02T13:39:44;1.88;;;1.65;;
73428;SDS011;61643;49.564;17.412;2023-07-02T13:42:11;2.03;;;1.75;;
73428;SDS011;61643;49.564;17.412;2023-07-02T13:44:37;2.55;;;1.63;;
73428;SDS011;61643;49.564;17.412;2023-07-02T13:47:03;1.80;;;1.60;;
73428;SDS011;61643;49.564;17.412;2023-07-02T13:49:30;2.72;;;1.60;;
73428;SDS011;61643;49.564;17.412;2023-07-02T13:51:56;7.20;;;1.88;;
73428;SDS011;61643;49.564;17.412;2023-07-02T13:54:22;2.92;;;1.80;;
73428;SDS011;61643;49.564;17.412;2023-07-02T13:56:48;2.28;;;1.92;;
73428;SDS011;61643;49.564;17.412;2023-07-02T13:59:14;2.13;;;1.73;;
73428;SDS011;61643;49.564;17.412;2023-07-02T14:01:42;1.90;;;1.80;;
73428;SDS011;61643;49.564;17.412;2023-07-02T14:04:08;3.42;;;1.90;;
73428;SDS011;61643;49.564;17.412;2023-07-02T14:06:35;1.83;;;1.70;;
73428;SDS011;61643;49.564;17.412;2023-07-02T14:09:01;4.10;;;2.10;;
73428;SDS011;61643;49.564;17.412;2023-07-02T14:11:28;3.58;;;1.90;;
73428;SDS011;61643;49.564;17.412;2023-07-02T14:13:54;3.10;;;1.67;;
73428;SDS011;61643;49.564;17.412;2023-07-02T14:16:21;2.20;;;2.00;;
73428;SDS011;61643;49.564;17.412;2023-07-02T14:18:49;2.95;;;2.00;;
73428;SDS011;61643;49.564;17.412;2023-07-02T14:21:16;2.00;;;1.77;;
73428;SDS011;61643;49.564;17.412;2023-07-02T14:23:42;3.15;;;1.90;;
73428;SDS011;61643;49.564;17.412;2023-07-02T14:26:09;2.00;;;1.80;;
73428;SDS011;61643;49.564;17.412;2023-07-02T14:28:35;2.30;;;1.75;;
73428;SDS011;61643;49.564;17.412;2023-07-02T14:31:02;2.08;;;1.80;;
73428;SDS011;61643;49.564;17.412;2023-07-02T14:33:30;3.25;;;1.90;;
73428;SDS011;61643;49.564;17.412;2023-07-02T14:35:58;2.80;;;2.00;;
73428;SDS011;61643;49.564;17.412;2023-07-02T14:38:25;1.85;;;1.70;;
73428;SDS011;61643;49.564;17.412;2023-07-02T14:40:52;2.25;;;2.03;;